AFR56S LFPG-OMDB
Flight info
| Callsign | AFR56S |
|---|---|
| Flight time | N/A |
| Altitude | 39000 |
| Route | LANVI DCT BEGAR DCT TRA DCT GAMSA DCT BIRGI DCT GOTAR DCT MOPUG DCT ARTAT UP975 ERGUN UL124 BONAM L319 DASDO L223 LAM G666 ORSAR R784 TATLA L223 VUTEB |
| Aircraft | A388/J-SADE2E3FGHIJ3J4J5M1RWXY/LB1D1 |
Departure
| Time | 2026-05-05 05:53 |
|---|---|
| Airport | Charles de Gaulle International Airport (LFPG) |
Arrival
| Time | N/A |
|---|---|
| Airport | Dubai International Airport (OMDB) |
| Time | Latitude | Longitude | Altitude | Speed | Heading |
|---|---|---|---|---|---|
| 2026-05-05 05:30 | 49.00165 | 2.56122 | 358 ft | 0 kts | 0° |
| 2026-05-05 05:36 | 49.00161 | 2.56122 | 358 ft | 2 kts | 0° |
| 2026-05-05 05:36 | 49.00148 | 2.56122 | 361 ft | 2 kts | 0° |
| 2026-05-05 05:36 | 49.00136 | 2.56122 | 364 ft | 2 kts | 0° |
| 2026-05-05 05:37 | 49.00123 | 2.56122 | 358 ft | 2 kts | 356° |
| 2026-05-05 05:37 | 49.00111 | 2.56128 | 366 ft | 2 kts | 338° |
| 2026-05-05 05:37 | 49.00100 | 2.56140 | 367 ft | 2 kts | 316° |
| 2026-05-05 05:37 | 49.00094 | 2.56156 | 367 ft | 2 kts | 295° |
| 2026-05-05 05:38 | 49.00092 | 2.56176 | 362 ft | 2 kts | 274° |
| 2026-05-05 05:38 | 49.00093 | 2.56187 | 365 ft | 0 kts | 262° |
| 2026-05-05 05:40 | 49.00092 | 2.56175 | 362 ft | 3 kts | 262° |
| 2026-05-05 05:40 | 49.00087 | 2.56120 | 366 ft | 7 kts | 265° |
| 2026-05-05 05:40 | 49.00082 | 2.56023 | 363 ft | 12 kts | 265° |
| 2026-05-05 05:40 | 49.00074 | 2.55863 | 367 ft | 18 kts | 265° |
| 2026-05-05 05:41 | 49.00086 | 2.55656 | 362 ft | 19 kts | 303° |
| 2026-05-05 05:41 | 49.00187 | 2.55584 | 363 ft | 16 kts | 342° |
| 2026-05-05 05:41 | 49.00288 | 2.55535 | 365 ft | 16 kts | 343° |
| 2026-05-05 05:41 | 49.00394 | 2.55491 | 363 ft | 15 kts | 345° |
| 2026-05-05 05:42 | 49.00496 | 2.55450 | 363 ft | 15 kts | 344° |
| 2026-05-05 05:42 | 49.00592 | 2.55408 | 367 ft | 13 kts | 344° |
| 2026-05-05 05:42 | 49.00680 | 2.55370 | 361 ft | 13 kts | 345° |
| 2026-05-05 05:42 | 49.00768 | 2.55332 | 365 ft | 13 kts | 343° |
| 2026-05-05 05:43 | 49.00856 | 2.55294 | 362 ft | 13 kts | 345° |
| 2026-05-05 05:43 | 49.00945 | 2.55256 | 367 ft | 13 kts | 343° |
| 2026-05-05 05:43 | 49.01033 | 2.55218 | 364 ft | 13 kts | 346° |
| 2026-05-05 05:43 | 49.01118 | 2.55181 | 364 ft | 12 kts | 341° |
| 2026-05-05 05:44 | 49.01208 | 2.55139 | 366 ft | 16 kts | 343° |
| 2026-05-05 05:44 | 49.01329 | 2.55090 | 362 ft | 19 kts | 345° |
| 2026-05-05 05:44 | 49.01453 | 2.55042 | 365 ft | 18 kts | 350° |
| 2026-05-05 05:44 | 49.01567 | 2.55021 | 365 ft | 17 kts | 354° |
| 2026-05-05 05:45 | 49.01682 | 2.55009 | 364 ft | 16 kts | 356° |
| 2026-05-05 05:45 | 49.01788 | 2.54998 | 364 ft | 15 kts | 348° |
| 2026-05-05 05:45 | 49.01866 | 2.54905 | 365 ft | 16 kts | 314° |
| 2026-05-05 05:45 | 49.01971 | 2.54850 | 362 ft | 15 kts | 347° |
| 2026-05-05 05:46 | 49.02023 | 2.54789 | 366 ft | 6 kts | 279° |
| 2026-05-05 05:46 | 49.02021 | 2.54690 | 361 ft | 13 kts | 266° |
| 2026-05-05 05:46 | 49.02012 | 2.54521 | 360 ft | 19 kts | 265° |
| 2026-05-05 05:46 | 49.01999 | 2.54293 | 365 ft | 24 kts | 261° |
| 2026-05-05 05:47 | 49.01909 | 2.54088 | 367 ft | 22 kts | 244° |
| 2026-05-05 05:47 | 49.01885 | 2.53856 | 365 ft | 23 kts | 265° |
| 2026-05-05 05:47 | 49.01871 | 2.53594 | 361 ft | 27 kts | 266° |
| 2026-05-05 05:47 | 49.01854 | 2.53285 | 365 ft | 31 kts | 265° |
| 2026-05-05 05:48 | 49.01838 | 2.52940 | 360 ft | 34 kts | 262° |
| 2026-05-05 05:48 | 49.01815 | 2.52575 | 367 ft | 35 kts | 264° |
| 2026-05-05 05:48 | 49.01774 | 2.52380 | 367 ft | 13 kts | 214° |
| 2026-05-05 05:48 | 49.01712 | 2.52261 | 365 ft | 18 kts | 259° |
| 2026-05-05 05:49 | 49.01698 | 2.52048 | 359 ft | 23 kts | 266° |
| 2026-05-05 05:49 | 49.01683 | 2.51776 | 360 ft | 27 kts | 264° |
| 2026-05-05 05:49 | 49.01664 | 2.51495 | 355 ft | 26 kts | 265° |
| 2026-05-05 05:49 | 49.01705 | 2.51280 | 367 ft | 17 kts | 347° |
| 2026-05-05 05:50 | 49.01813 | 2.51263 | 360 ft | 15 kts | 354° |
| 2026-05-05 05:50 | 49.01918 | 2.51251 | 361 ft | 15 kts | 1° |
| 2026-05-05 05:50 | 49.01934 | 2.51253 | 361 ft | 0 kts | 5° |
| 2026-05-05 05:51 | 49.01947 | 2.51255 | 364 ft | 5 kts | 12° |
| 2026-05-05 05:51 | 49.01994 | 2.51284 | 364 ft | 10 kts | 32° |
| 2026-05-05 05:51 | 49.02051 | 2.51366 | 362 ft | 12 kts | 54° |
| 2026-05-05 05:52 | 49.02076 | 2.51516 | 366 ft | 29 kts | 85° |
| 2026-05-05 05:52 | 49.02117 | 2.52282 | 365 ft | 113 kts | 84° |
| 2026-05-05 05:52 | 49.02192 | 2.53775 | 367 ft | 168 kts | 84° |
| 2026-05-05 05:52 | 49.02268 | 2.55639 | 804 ft | 176 kts | 83° |
| 2026-05-05 05:53 | 49.02382 | 2.57482 | 1468 ft | 177 kts | 82° |
| 2026-05-05 05:53 | 49.02498 | 2.59423 | 1745 ft | 190 kts | 82° |
| 2026-05-05 05:53 | 49.02618 | 2.61531 | 1860 ft | 212 kts | 83° |
| 2026-05-05 05:53 | 49.02739 | 2.63818 | 2252 ft | 229 kts | 84° |
| 2026-05-05 05:54 | 49.02874 | 2.66356 | 2643 ft | 247 kts | 85° |
| 2026-05-05 05:54 | 49.03010 | 2.68994 | 3410 ft | 249 kts | 84° |
| 2026-05-05 05:54 | 49.03145 | 2.71650 | 4167 ft | 254 kts | 84° |
| 2026-05-05 05:54 | 49.03280 | 2.74347 | 4915 ft | 257 kts | 84° |
| 2026-05-05 05:55 | 49.03412 | 2.77087 | 5679 ft | 260 kts | 85° |
| 2026-05-05 05:55 | 49.03545 | 2.79854 | 6443 ft | 263 kts | 85° |
| 2026-05-05 05:55 | 49.03620 | 2.82654 | 7132 ft | 267 kts | 95° |
| 2026-05-05 05:55 | 49.03138 | 2.85410 | 7832 ft | 272 kts | 108° |
| 2026-05-05 05:56 | 49.02493 | 2.88136 | 8541 ft | 276 kts | 108° |
| 2026-05-05 05:56 | 49.01830 | 2.90896 | 9271 ft | 279 kts | 108° |
| 2026-05-05 05:56 | 49.01169 | 2.93687 | 9963 ft | 283 kts | 108° |
| 2026-05-05 05:56 | 49.00504 | 2.96547 | 10305 ft | 299 kts | 108° |
| 2026-05-05 05:57 | 48.99787 | 2.99668 | 10479 ft | 318 kts | 108° |
| 2026-05-05 05:57 | 48.99048 | 3.02889 | 10724 ft | 333 kts | 108° |
| 2026-05-05 05:57 | 48.98279 | 3.06233 | 11295 ft | 336 kts | 108° |
| 2026-05-05 05:57 | 48.97503 | 3.09600 | 11899 ft | 339 kts | 109° |
| 2026-05-05 05:58 | 48.96715 | 3.13014 | 12484 ft | 343 kts | 109° |
| 2026-05-05 05:58 | 48.95917 | 3.16463 | 13084 ft | 346 kts | 109° |
| 2026-05-05 05:58 | 48.95113 | 3.19931 | 13682 ft | 350 kts | 109° |
| 2026-05-05 05:58 | 48.94296 | 3.23450 | 14206 ft | 353 kts | 110° |
| 2026-05-05 05:59 | 48.93485 | 3.26937 | 14746 ft | 355 kts | 110° |
| 2026-05-05 05:59 | 48.92660 | 3.30480 | 15654 ft | 345 kts | 110° |
| 2026-05-05 05:59 | 48.91867 | 3.33884 | 16225 ft | 348 kts | 110° |
| 2026-05-05 05:59 | 48.91058 | 3.37347 | 16752 ft | 350 kts | 110° |
| 2026-05-05 06:00 | 48.90238 | 3.40850 | 17312 ft | 352 kts | 110° |
| 2026-05-05 06:00 | 48.89412 | 3.44371 | 17858 ft | 354 kts | 110° |
| 2026-05-05 06:00 | 48.88587 | 3.47884 | 18363 ft | 356 kts | 110° |
| 2026-05-05 06:00 | 48.87747 | 3.51457 | 18803 ft | 359 kts | 111° |
| 2026-05-05 06:01 | 48.86906 | 3.55026 | 19233 ft | 361 kts | 111° |
| 2026-05-05 06:01 | 48.86052 | 3.58649 | 19480 ft | 370 kts | 111° |
| 2026-05-05 06:01 | 48.85170 | 3.62378 | 19696 ft | 379 kts | 111° |
| 2026-05-05 06:01 | 48.84277 | 3.66149 | 20104 ft | 381 kts | 111° |
| 2026-05-05 06:02 | 48.83377 | 3.69947 | 20525 ft | 383 kts | 111° |
| 2026-05-05 06:02 | 48.82469 | 3.73772 | 20942 ft | 386 kts | 111° |
| 2026-05-05 06:02 | 48.81862 | 3.76326 | 21206 ft | 388 kts | 111° |
| 2026-05-05 06:02 | 48.80946 | 3.80172 | 21600 ft | 390 kts | 111° |
| 2026-05-05 06:03 | 48.80016 | 3.84069 | 22006 ft | 393 kts | 111° |
| 2026-05-05 06:03 | 48.79082 | 3.87973 | 22390 ft | 395 kts | 111° |
| 2026-05-05 06:03 | 48.78139 | 3.91912 | 22774 ft | 398 kts | 111° |
| 2026-05-05 06:03 | 48.76880 | 3.97155 | 23279 ft | 402 kts | 112° |
| 2026-05-05 06:04 | 48.76230 | 3.99860 | 23519 ft | 404 kts | 112° |
| 2026-05-05 06:04 | 48.75268 | 4.03853 | 23850 ft | 406 kts | 112° |
| 2026-05-05 06:04 | 48.74293 | 4.07895 | 24188 ft | 408 kts | 112° |
| 2026-05-05 06:04 | 48.73311 | 4.11959 | 24533 ft | 410 kts | 112° |
| 2026-05-05 06:05 | 48.72326 | 4.16026 | 24880 ft | 412 kts | 113° |
| 2026-05-05 06:05 | 48.71349 | 4.20056 | 25234 ft | 414 kts | 113° |
| 2026-05-05 06:05 | 48.70350 | 4.24164 | 25602 ft | 416 kts | 113° |
| 2026-05-05 06:05 | 48.69343 | 4.28301 | 26001 ft | 418 kts | 114° |
| 2026-05-05 06:06 | 48.68335 | 4.32435 | 26405 ft | 420 kts | 114° |
| 2026-05-05 06:06 | 48.67320 | 4.36586 | 26802 ft | 422 kts | 114° |
| 2026-05-05 06:06 | 48.66303 | 4.40740 | 27227 ft | 424 kts | 114° |
| 2026-05-05 06:06 | 48.65271 | 4.44946 | 27663 ft | 425 kts | 115° |
| 2026-05-05 06:07 | 48.64241 | 4.49138 | 28085 ft | 428 kts | 115° |
| 2026-05-05 06:07 | 48.63210 | 4.53323 | 28512 ft | 429 kts | 115° |
| 2026-05-05 06:07 | 48.62167 | 4.57550 | 28937 ft | 432 kts | 115° |
| 2026-05-05 06:07 | 48.61112 | 4.61818 | 29380 ft | 434 kts | 115° |
| 2026-05-05 06:08 | 48.60051 | 4.66099 | 29803 ft | 436 kts | 116° |
| 2026-05-05 06:08 | 48.58985 | 4.70398 | 30192 ft | 438 kts | 116° |
| 2026-05-05 06:08 | 48.57914 | 4.74703 | 30581 ft | 440 kts | 116° |
| 2026-05-05 06:08 | 48.56832 | 4.79048 | 30949 ft | 442 kts | 116° |
| 2026-05-05 06:09 | 48.55749 | 4.83387 | 31306 ft | 444 kts | 116° |
| 2026-05-05 06:09 | 48.54654 | 4.87765 | 31646 ft | 447 kts | 116° |
| 2026-05-05 06:09 | 48.53552 | 4.92163 | 31981 ft | 449 kts | 116° |
| 2026-05-05 06:09 | 48.52438 | 4.96601 | 32317 ft | 452 kts | 117° |
| 2026-05-05 06:10 | 48.51321 | 5.01038 | 32658 ft | 455 kts | 117° |
| 2026-05-05 06:10 | 48.50197 | 5.05500 | 32980 ft | 457 kts | 117° |
| 2026-05-05 06:10 | 48.49058 | 5.10007 | 33322 ft | 460 kts | 117° |
| 2026-05-05 06:10 | 48.47928 | 5.14473 | 33645 ft | 462 kts | 117° |
| 2026-05-05 06:11 | 48.46779 | 5.19008 | 33963 ft | 465 kts | 117° |
| 2026-05-05 06:11 | 48.45619 | 5.23574 | 34185 ft | 469 kts | 117° |
| 2026-05-05 06:11 | 48.44452 | 5.28156 | 34426 ft | 472 kts | 117° |
| 2026-05-05 06:11 | 48.43264 | 5.32817 | 34750 ft | 474 kts | 116° |
| 2026-05-05 06:12 | 48.42079 | 5.37454 | 35065 ft | 475 kts | 116° |
| 2026-05-05 06:12 | 48.40891 | 5.42095 | 35366 ft | 476 kts | 116° |
| 2026-05-05 06:12 | 48.39694 | 5.46758 | 35692 ft | 477 kts | 116° |
| 2026-05-05 06:12 | 48.38510 | 5.51363 | 36016 ft | 479 kts | 115° |
| 2026-05-05 06:13 | 48.37302 | 5.56054 | 36328 ft | 480 kts | 115° |
| 2026-05-05 06:13 | 48.36077 | 5.60797 | 36660 ft | 481 kts | 115° |
| 2026-05-05 06:13 | 48.34863 | 5.65490 | 36987 ft | 481 kts | 115° |
| 2026-05-05 06:13 | 48.33662 | 5.70124 | 37325 ft | 482 kts | 114° |
| 2026-05-05 06:14 | 48.32445 | 5.74817 | 37640 ft | 483 kts | 114° |
| 2026-05-05 06:14 | 48.31227 | 5.79505 | 37968 ft | 483 kts | 114° |
| 2026-05-05 06:14 | 48.30059 | 5.84262 | 38286 ft | 485 kts | 111° |
| 2026-05-05 06:14 | 48.29024 | 5.89085 | 38604 ft | 485 kts | 109° |
| 2026-05-05 06:15 | 48.28018 | 5.93923 | 38852 ft | 485 kts | 109° |
| 2026-05-05 06:15 | 48.26995 | 5.98783 | 38912 ft | 491 kts | 110° |
| 2026-05-05 06:15 | 48.24888 | 6.08540 | 38912 ft | 492 kts | 110° |
| 2026-05-05 06:16 | 48.22717 | 6.18414 | 38907 ft | 506 kts | 110° |
| 2026-05-05 06:16 | 48.20485 | 6.28514 | 38906 ft | 506 kts | 110° |
| 2026-05-05 06:17 | 48.18280 | 6.38449 | 38897 ft | 506 kts | 110° |
| 2026-05-05 06:17 | 48.16043 | 6.48479 | 38894 ft | 507 kts | 110° |
| 2026-05-05 06:18 | 48.13800 | 6.58483 | 38894 ft | 507 kts | 111° |
| 2026-05-05 06:18 | 48.11540 | 6.68520 | 38893 ft | 508 kts | 111° |
| 2026-05-05 06:19 | 48.09277 | 6.78521 | 38895 ft | 508 kts | 111° |
| 2026-05-05 06:19 | 48.07017 | 6.88464 | 38889 ft | 507 kts | 111° |
| 2026-05-05 06:20 | 48.04727 | 6.98492 | 38897 ft | 507 kts | 111° |
| 2026-05-05 06:20 | 48.02442 | 7.08457 | 38901 ft | 507 kts | 111° |
| 2026-05-05 06:21 | 48.00149 | 7.18397 | 38903 ft | 507 kts | 111° |
| 2026-05-05 06:21 | 47.97844 | 7.28348 | 38907 ft | 507 kts | 111° |
| 2026-05-05 06:22 | 47.95529 | 7.38295 | 38916 ft | 507 kts | 111° |
| 2026-05-05 06:22 | 47.93214 | 7.48197 | 38909 ft | 507 kts | 111° |
| 2026-05-05 06:23 | 47.90877 | 7.58156 | 38889 ft | 507 kts | 111° |
| 2026-05-05 06:23 | 47.88452 | 7.67955 | 38892 ft | 506 kts | 113° |
| 2026-05-05 06:24 | 47.85942 | 7.77734 | 38893 ft | 507 kts | 113° |
| 2026-05-05 06:24 | 47.83431 | 7.87566 | 38890 ft | 506 kts | 113° |
| 2026-05-05 06:25 | 47.80935 | 7.97340 | 38883 ft | 507 kts | 113° |
| 2026-05-05 06:25 | 47.78421 | 8.07141 | 38887 ft | 507 kts | 113° |
| 2026-05-05 06:26 | 47.75895 | 8.16948 | 38885 ft | 506 kts | 113° |
| 2026-05-05 06:26 | 47.73366 | 8.26727 | 38888 ft | 507 kts | 113° |
| 2026-05-05 06:27 | 47.69553 | 8.41387 | 38895 ft | 507 kts | 114° |
| 2026-05-05 06:28 | 47.67154 | 8.51182 | 38899 ft | 509 kts | 111° |
| 2026-05-05 06:28 | 47.64964 | 8.61194 | 38900 ft | 509 kts | 111° |
| 2026-05-05 06:29 | 47.62734 | 8.71155 | 38894 ft | 510 kts | 111° |
| 2026-05-05 06:29 | 47.60465 | 8.81115 | 38901 ft | 510 kts | 111° |
| 2026-05-05 06:30 | 47.58177 | 8.91085 | 38905 ft | 510 kts | 111° |
| 2026-05-05 06:30 | 47.55883 | 9.01037 | 38897 ft | 511 kts | 111° |
| 2026-05-05 06:31 | 47.53582 | 9.10980 | 38891 ft | 511 kts | 111° |
| 2026-05-05 06:31 | 47.51285 | 9.20855 | 38894 ft | 511 kts | 112° |
| 2026-05-05 06:32 | 47.48968 | 9.30777 | 38901 ft | 510 kts | 112° |
| 2026-05-05 06:32 | 47.46639 | 9.40697 | 38909 ft | 511 kts | 112° |
| 2026-05-05 06:33 | 47.44304 | 9.50604 | 38910 ft | 510 kts | 112° |
| 2026-05-05 06:33 | 47.42038 | 9.60548 | 38910 ft | 513 kts | 108° |
| 2026-05-05 06:34 | 47.40784 | 9.70944 | 38908 ft | 516 kts | 97° |
| 2026-05-05 06:34 | 47.40554 | 9.81562 | 38899 ft | 518 kts | 94° |
| 2026-05-05 06:35 | 47.40372 | 9.91838 | 38892 ft | 518 kts | 94° |